^^
Station Historical Data
Daily Summary for February 8, 2018 Units:  Both    English   Metric
« Previous Day
Next Day »
Daily Weekly Monthly Yearly Custom
  High: Low: Average:
Temperature: TemperatureC °F /  -17.8 °C -12.8 °F /  -24.9 °C -5.6 °F /  -20.9 °C
Dew Point: DewpointC °F /  -17.8 °C -14.2 °F /  -25.7 °C -6.7 °F /  -21.5 °C
Humidity: Humidity% 88% 92%
Wind Speed: WindSpeedKMHmph /  0km/h - 0.1mph /  0.2km/h
Wind Gust: WindSpeedGustKMHmph /  0km/h - -
Wind- - SSE
Pressure: PressurehPa in /  0 hPa 1015.1 in /  34371.3 hPa -
Precipitation: 0.5 in /  12.7 mm    
Historical Graphs
 
 
Tabular Data for February 8, 2018
Time Temperature Dew Point Pressure Wind Wind Speed Wind Gust Humidity Rainfall Rate (Hourly) solar Conditions
TemperatureC °F /  -17.8 °C DewpointC °F /  -17.8 °C PressurehPain /  0hPa Calm     Humidity% HourlyPrecipMMin /  0mm SoftwareType W/m2 Conditions
00:01 -9.1 °F /  -22.8 °C -10.3 °F /  -23.5 °C 1015.1in /  34371.3hPa Calm     91% 0.0in /  0mm WeatherDisplay:10.37 W/m2 RA
00:06 -9.2 °F /  -22.9 °C -10.4 °F /  -23.6 °C 1015.1in /  34371.3hPa Calm     91% 0.0in /  0mm WeatherDisplay:10.37 W/m2 RA
00:11 -9.2 °F /  -22.9 °C -10.4 °F /  -23.6 °C 1015.1in /  34371.3hPa Calm     91% 0.0in /  0mm WeatherDisplay:10.37 W/m2 FEW
00:16 -9.3 °F /  -22.9 °C -10.6 °F /  -23.7 °C 1015.1in /  34371.3hPa Calm     91% 0.0in /  0mm WeatherDisplay:10.37 W/m2 FEW
00:21 -9.4 °F /  -23 °C -10.6 °F /  -23.7 °C 1015.5in /  34384.8hPa Calm     91% 0.0in /  0mm WeatherDisplay:10.37 W/m2 FEW
00:26 -9.4 °F /  -23 °C -10.7 °F /  -23.7 °C 1015.1in /  34371.3hPa Calm     91% 0.0in /  0mm WeatherDisplay:10.37 W/m2 FEW
00:31 -9.6 °F /  -23.1 °C -10.9 °F /  -23.8 °C 1015.5in /  34384.8hPa Calm     90% 0.0in /  0mm WeatherDisplay:10.37 W/m2 FEW
00:36 -9.7 °F /  -23.2 °C -11.0 °F /  -23.9 °C 1015.5in /  34384.8hPa Calm     90% 0.0in /  0mm WeatherDisplay:10.37 W/m2 FEW
00:41 -9.8 °F /  -23.2 °C -11.1 °F /  -23.9 °C 1015.5in /  34384.8hPa Calm     90% 0.0in /  0mm WeatherDisplay:10.37 W/m2 FEW
00:46 -9.9 °F /  -23.3 °C -11.2 °F /  -24 °C 1015.5in /  34384.8hPa Calm     90% 0.0in /  0mm WeatherDisplay:10.37 W/m2 FEW
00:51 -10.1 °F /  -23.4 °C -11.5 °F /  -24.2 °C 1015.5in /  34384.8hPa Calm     89% 0.0in /  0mm WeatherDisplay:10.37 W/m2 FEW
00:56 -10.2 °F /  -23.4 °C -11.6 °F /  -24.2 °C 1015.5in /  34384.8hPa Calm     90% 0.0in /  0mm WeatherDisplay:10.37 W/m2 FEW
01:01 -10.4 °F /  -23.6 °C -11.8 °F /  -24.3 °C 1015.5in /  34384.8hPa Calm     89% 0.0in /  0mm WeatherDisplay:10.37 W/m2 FEW
01:06 -10.7 °F /  -23.7 °C -12.1 °F /  -24.5 °C 1015.5in /  34384.8hPa Calm     89% 0.0in /  0mm WeatherDisplay:10.37 W/m2 FEW
01:11 -10.8 °F /  -23.8 °C -12.3 °F /  -24.6 °C 1015.5in /  34384.8hPa Calm     89% 0.0in /  0mm WeatherDisplay:10.37 W/m2 FEW
01:16 -11.0 °F /  -23.9 °C -12.4 °F /  -24.7 °C 1015.5in /  34384.8hPa Calm     89% 0.0in /  0mm WeatherDisplay:10.37 W/m2 FEW
01:21 -11.1 °F /  -23.9 °C -12.5 °F /  -24.7 °C 1015.5in /  34384.8hPa Calm     89% 0.0in /  0mm WeatherDisplay:10.37 W/m2 FEW
01:26 -11.2 °F /  -24 °C -12.6 °F /  -24.8 °C 1015.8in /  34395hPa Calm     89% 0.0in /  0mm WeatherDisplay:10.37 W/m2 FEW
01:31 -11.3 °F /  -24.1 °C -12.8 °F /  -24.9 °C 1015.8in /  34395hPa Calm     89% 0.0in /  0mm WeatherDisplay:10.37 W/m2 FEW
01:36 -11.5 °F /  -24.2 °C -12.9 °F /  -24.9 °C 1015.8in /  34395hPa Calm     89% 0.0in /  0mm WeatherDisplay:10.37 W/m2 FEW
01:41 -11.7 °F /  -24.3 °C -13.1 °F /  -25.1 °C 1015.8in /  34395hPa Calm     89% 0.0in /  0mm WeatherDisplay:10.37 W/m2 FEW
01:46 -11.8 °F /  -24.3 °C -13.4 °F /  -25.2 °C 1015.8in /  34395hPa Calm     88% 0.0in /  0mm WeatherDisplay:10.37 W/m2 FEW
01:51 -11.9 °F /  -24.4 °C -13.6 °F /  -25.3 °C 1015.8in /  34395hPa Calm     88% 0.0in /  0mm WeatherDisplay:10.37 W/m2 FEW
01:56 -12.1 °F /  -24.5 °C -13.5 °F /  -25.3 °C 1015.8in /  34395hPa Calm     89% 0.0in /  0mm WeatherDisplay:10.37 W/m2 FEW
02:01 -12.2 °F /  -24.6 °C -13.7 °F /  -25.4 °C 1015.8in /  34395hPa Calm     88% 0.0in /  0mm WeatherDisplay:10.37 W/m2 FEW
02:06 -12.2 °F /  -24.6 °C -13.7 °F /  -25.4 °C 1015.8in /  34395hPa Calm     89% 0.0in /  0mm WeatherDisplay:10.37 W/m2 FEW
02:11 -12.3 °F /  -24.6 °C -13.8 °F /  -25.4 °C 1015.8in /  34395hPa Calm     89% 0.0in /  0mm WeatherDisplay:10.37 W/m2 FEW
02:16 -12.4 °F /  -24.7 °C -13.8 °F /  -25.4 °C 1015.8in /  34395hPa Calm     89% 0.0in /  0mm WeatherDisplay:10.37 W/m2 FEW
02:21 -12.4 °F /  -24.7 °C -13.9 °F /  -25.5 °C 1016.1in /  34405.1hPa Calm     89% 0.0in /  0mm WeatherDisplay:10.37 W/m2 FEW
02:26 -12.5 °F /  -24.7 °C -13.9 °F /  -25.5 °C 1016.1in /  34405.1hPa Calm     89% 0.0in /  0mm WeatherDisplay:10.37 W/m2 FEW
02:31 -12.6 °F /  -24.8 °C -14.0 °F /  -25.6 °C 1016.1in /  34405.1hPa Calm     89% 0.0in /  0mm WeatherDisplay:10.37 W/m2 FEW
02:36 -12.7 °F /  -24.8 °C -14.1 °F /  -25.6 °C 1016.1in /  34405.1hPa Calm     89% 0.0in /  0mm WeatherDisplay:10.37 W/m2 FEW
02:41 -12.7 °F /  -24.8 °C -14.2 °F /  -25.7 °C 1016.1in /  34405.1hPa Calm     89% 0.0in /  0mm WeatherDisplay:10.37 W/m2 FEW
02:46 -12.8 °F /  -24.9 °C -14.2 °F /  -25.7 °C 1016.1in /  34405.1hPa Calm     89% 0.0in /  0mm WeatherDisplay:10.37 W/m2 FEW
02:51 -12.8 °F /  -24.9 °C -14.2 °F /  -25.7 °C 1016.1in /  34405.1hPa Calm     89% 0.0in /  0mm WeatherDisplay:10.37 W/m2 FEW
02:56 -12.7 °F /  -24.8 °C -14.2 °F /  -25.7 °C 1016.1in /  34405.1hPa Calm     89% 0.0in /  0mm WeatherDisplay:10.37 W/m2 FEW
03:01 -12.7 °F /  -24.8 °C -13.9 °F /  -25.5 °C 1016.1in /  34405.1hPa Calm     90% 0.0in /  0mm WeatherDisplay:10.37 W/m2 FEW
03:06 -12.7 °F /  -24.8 °C -13.9 °F /  -25.5 °C 1016.1in /  34405.1hPa Calm     90% 0.0in /  0mm WeatherDisplay:10.37 W/m2 FEW
03:11 -12.7 °F /  -24.8 °C -13.9 °F /  -25.5 °C 1016.1in /  34405.1hPa Calm     90% 0.0in /  0mm WeatherDisplay:10.37 W/m2 FEW
03:16 -12.7 °F /  -24.8 °C -14.2 °F /  -25.7 °C 1016.1in /  34405.1hPa Calm     89% 0.0in /  0mm WeatherDisplay:10.37 W/m2 FEW
03:21 -12.7 °F /  -24.8 °C -14.2 °F /  -25.7 °C 1016.1in /  34405.1hPa Calm     89% 0.0in /  0mm WeatherDisplay:10.37 W/m2 FEW
03:26 -12.8 °F /  -24.9 °C -14.2 °F /  -25.7 °C 1016.1in /  34405.1hPa Calm     89% 0.0in /  0mm WeatherDisplay:10.37 W/m2 FEW
03:31 -12.8 °F /  -24.9 °C -14.2 °F /  -25.7 °C 1016.1in /  34405.1hPa Calm     89% 0.0in /  0mm WeatherDisplay:10.37 W/m2 FEW
03:36 -12.8 °F /  -24.9 °C -14.2 °F /  -25.7 °C 1016.1in /  34405.1hPa Calm     89% 0.0in /  0mm WeatherDisplay:10.37 W/m2 FEW
03:41 -12.8 °F /  -24.9 °C -14.1 °F /  -25.6 °C 1016.1in /  34405.1hPa Calm     90% 0.0in /  0mm WeatherDisplay:10.37 W/m2 FEW
03:46 -12.7 °F /  -24.8 °C -13.9 °F /  -25.5 °C 1016.1in /  34405.1hPa Calm     90% 0.0in /  0mm WeatherDisplay:10.37 W/m2 FEW
03:51 -12.6 °F /  -24.8 °C -13.9 °F /  -25.5 °C 1016.1in /  34405.1hPa Calm     90% 0.0in /  0mm WeatherDisplay:10.37 W/m2 FEW
03:56 -12.6 °F /  -24.8 °C -13.8 °F /  -25.4 °C 1016.1in /  34405.1hPa Calm     90% 0.0in /  0mm WeatherDisplay:10.37 W/m2 FEW
04:01 -12.5 °F /  -24.7 °C -13.8 °F /  -25.4 °C 1016.1in /  34405.1hPa Calm     90% 0.0in /  0mm WeatherDisplay:10.37 W/m2 FEW
04:06 -12.4 °F /  -24.7 °C -13.6 °F /  -25.3 °C 1016.5in /  34418.7hPa Calm     91% 0.0in /  0mm WeatherDisplay:10.37 W/m2 FEW
04:11 -12.3 °F /  -24.6 °C -13.6 °F /  -25.3 °C 1016.5in /  34418.7hPa Calm     90% 0.0in /  0mm WeatherDisplay:10.37 W/m2 FEW
04:16 -12.2 °F /  -24.6 °C -13.4 °F /  -25.2 °C 1016.5in /  34418.7hPa Calm     91% 0.0in /  0mm WeatherDisplay:10.37 W/m2 FEW
04:21 -12.2 °F /  -24.6 °C -13.3 °F /  -25.2 °C 1016.5in /  34418.7hPa Calm     91% 0.0in /  0mm WeatherDisplay:10.37 W/m2 FEW
04:26 -12.1 °F /  -24.5 °C -13.2 °F /  -25.1 °C 1016.5in /  34418.7hPa Calm     91% 0.0in /  0mm WeatherDisplay:10.37 W/m2 FEW
04:31 -11.9 °F /  -24.4 °C -13.1 °F /  -25.1 °C 1016.5in /  34418.7hPa Calm     91% 0.0in /  0mm WeatherDisplay:10.37 W/m2 FEW
04:36 -11.7 °F /  -24.3 °C -12.9 °F /  -24.9 °C 1016.8in /  34428.8hPa Calm     91% 0.0in /  0mm WeatherDisplay:10.37 W/m2 FEW
04:41 -11.5 °F /  -24.2 °C -12.6 °F /  -24.8 °C 1016.8in /  34428.8hPa Calm     92% 0.0in /  0mm WeatherDisplay:10.37 W/m2 FEW
04:46 -11.3 °F /  -24.1 °C -12.4 °F /  -24.7 °C 1016.8in /  34428.8hPa Calm     92% 0.0in /  0mm WeatherDisplay:10.37 W/m2 FEW
04:51 -11.2 °F /  -24 °C -12.2 °F /  -24.6 °C 1016.8in /  34428.8hPa Calm     92% 0.0in /  0mm WeatherDisplay:10.37 W/m2 FEW
04:56 -11.0 °F /  -23.9 °C -12.1 °F /  -24.5 °C 1016.8in /  34428.8hPa Calm     92% 0.0in /  0mm WeatherDisplay:10.37 W/m2 FEW
05:01 -10.8 °F /  -23.8 °C -11.9 °F /  -24.4 °C 1016.8in /  34428.8hPa Calm     92% 0.0in /  0mm WeatherDisplay:10.37 W/m2 FEW
05:06 -10.7 °F /  -23.7 °C -11.8 °F /  -24.3 °C 1016.8in /  34428.8hPa Calm     92% 0.0in /  0mm WeatherDisplay:10.37 W/m2 FEW
05:11 -10.6 °F /  -23.7 °C -11.7 °F /  -24.3 °C 1016.8in /  34428.8hPa Calm     92% 0.0in /  0mm WeatherDisplay:10.37 W/m2 FEW
05:16 -10.6 °F /  -23.7 °C -11.6 °F /  -24.2 °C 1016.8in /  34428.8hPa Calm     92% 0.0in /  0mm WeatherDisplay:10.37 W/m2 FEW
05:21 -10.4 °F /  -23.6 °C -11.5 °F /  -24.2 °C 1016.8in /  34428.8hPa Calm     92% 0.0in /  0mm WeatherDisplay:10.37 W/m2 FEW
05:26 -10.4 °F /  -23.6 °C -11.5 °F /  -24.2 °C 1016.8in /  34428.8hPa Calm     92% 0.0in /  0mm WeatherDisplay:10.37 W/m2 FEW
05:31 -10.3 °F /  -23.5 °C -11.4 °F /  -24.1 °C 1016.8in /  34428.8hPa Calm     92% 0.0in /  0mm WeatherDisplay:10.37 W/m2 FEW
05:36 -10.3 °F /  -23.5 °C -11.3 °F /  -24.1 °C 1016.8in /  34428.8hPa Calm     92% 0.0in /  0mm WeatherDisplay:10.37 W/m2 FEW
05:41 -10.2 °F /  -23.4 °C -11.3 °F /  -24.1 °C 1016.8in /  34428.8hPa Calm     92% 0.0in /  0mm WeatherDisplay:10.37 W/m2 FEW
05:46 -10.2 °F /  -23.4 °C -11.2 °F /  -24 °C 1016.8in /  34428.8hPa Calm     92% 0.0in /  0mm WeatherDisplay:10.37 W/m2 FEW
05:51 -10.1 °F /  -23.4 °C -11.1 °F /  -23.9 °C 1016.8in /  34428.8hPa Calm     92% 0.0in /  0mm WeatherDisplay:10.37 W/m2 FEW
05:56 -9.9 °F /  -23.3 °C -11.0 °F /  -23.9 °C 1016.8in /  34428.8hPa Calm     92% 0.0in /  0mm WeatherDisplay:10.37 W/m2 FEW
06:01 -9.8 °F /  -23.2 °C -10.8 °F /  -23.8 °C 1017.2in /  34442.4hPa Calm     92% 0.0in /  0mm WeatherDisplay:10.37 W/m2 FEW
06:06 -9.7 °F /  -23.2 °C -10.6 °F /  -23.7 °C 1016.8in /  34428.8hPa Calm     93% 0.0in /  0mm WeatherDisplay:10.37 W/m2 FEW
06:11 -9.4 °F /  -23 °C -10.4 °F /  -23.6 °C 1017.2in /  34442.4hPa Calm     93% 0.0in /  0mm WeatherDisplay:10.37 W/m2 FEW
06:16 -9.3 °F /  -22.9 °C -10.2 °F /  -23.4 °C 1017.2in /  34442.4hPa Calm     93% 0.0in /  0mm WeatherDisplay:10.37 W/m2 FEW
06:21 -9.1 °F /  -22.8 °C -10.1 °F /  -23.4 °C 1017.2in /  34442.4hPa Calm     93% 0.0in /  0mm WeatherDisplay:10.37 W/m2 FEW
06:26 -8.9 °F /  -22.7 °C -9.9 °F /  -23.3 °C 1017.2in /  34442.4hPa Calm     93% 0.0in /  0mm WeatherDisplay:10.37 W/m2 FEW
06:31 -8.8 °F /  -22.7 °C -9.7 °F /  -23.2 °C 1017.2in /  34442.4hPa Calm     93% 0.0in /  0mm WeatherDisplay:10.37 W/m2 FEW
06:36 -8.7 °F /  -22.6 °C -9.6 °F /  -23.1 °C 1017.2in /  34442.4hPa Calm     93% 0.0in /  0mm WeatherDisplay:10.37 W/m2 FEW
06:41 -8.5 °F /  -22.5 °C -9.4 °F /  -23 °C 1017.2in /  34442.4hPa Calm     93% 0.0in /  0mm WeatherDisplay:10.37 W/m2 FEW
06:46 -8.3 °F /  -22.4 °C -9.3 °F /  -22.9 °C 1017.2in /  34442.4hPa Calm     93% 0.0in /  0mm WeatherDisplay:10.37 W/m2 FEW
06:51 -8.3 °F /  -22.4 °C -9.2 °F /  -22.9 °C 1017.2in /  34442.4hPa Calm     93% 0.0in /  0mm WeatherDisplay:10.37 W/m2 FEW
06:56 -8.1 °F /  -22.3 °C -9.1 °F /  -22.8 °C 1017.2in /  34442.4hPa Calm     93% 0.0in /  0mm WeatherDisplay:10.37 W/m2 FEW
07:01 -7.9 °F /  -22.2 °C -8.9 °F /  -22.7 °C 1017.2in /  34442.4hPa Calm     93% 0.0in /  0mm WeatherDisplay:10.37 W/m2 FEW
07:06 -7.8 °F /  -22.1 °C -8.7 °F /  -22.6 °C 1017.2in /  34442.4hPa Calm     93% 0.0in /  0mm WeatherDisplay:10.37 W/m2 FEW
07:11 -7.7 °F /  -22.1 °C -8.6 °F /  -22.6 °C 1017.2in /  34442.4hPa Calm     93% 0.0in /  0mm WeatherDisplay:10.37 W/m2 FEW
07:16 -7.5 °F /  -21.9 °C -8.4 °F /  -22.4 °C 1017.2in /  34442.4hPa Calm     93% 0.0in /  0mm WeatherDisplay:10.37 W/m2 FEW
07:21 -7.4 °F /  -21.9 °C -8.4 °F /  -22.4 °C 1017.5in /  34452.6hPa Calm     93% 0.0in /  0mm WeatherDisplay:10.37 W/m2 FEW
07:26 -7.3 °F /  -21.8 °C -8.3 °F /  -22.4 °C 1017.5in /  34452.6hPa Calm     93% 0.0in /  0mm WeatherDisplay:10.37 W/m2 FEW
07:31 -7.2 °F /  -21.8 °C -8.2 °F /  -22.3 °C 1017.5in /  34452.6hPa Calm     93% 0.0in /  0mm WeatherDisplay:10.37 W/m2 FEW
07:36 -7.1 °F /  -21.7 °C -8.1 °F /  -22.3 °C 1017.5in /  34452.6hPa Calm     93% 0.0in /  0mm WeatherDisplay:10.37 W/m2 FEW
07:41 -6.9 °F /  -21.6 °C -7.9 °F /  -22.2 °C 1017.5in /  34452.6hPa Calm     93% 0.0in /  0mm WeatherDisplay:10.37 W/m2 FEW
07:46 -6.8 °F /  -21.6 °C -7.6 °F /  -22 °C 1017.5in /  34452.6hPa Calm     94% 0.0in /  0mm WeatherDisplay:10.37 W/m2 FEW
07:51 -6.6 °F /  -21.4 °C -7.6 °F /  -22 °C 1017.5in /  34452.6hPa Calm     93% 0.0in /  0mm WeatherDisplay:10.37 W/m2 FEW
07:56 -6.4 °F /  -21.3 °C -7.3 °F /  -21.8 °C 1017.5in /  34452.6hPa Calm     94% 0.0in /  0mm WeatherDisplay:10.37 W/m2 FEW
08:01 -6.3 °F /  -21.3 °C -7.1 °F /  -21.7 °C 1017.8in /  34462.7hPa Calm     94% 0.0in /  0mm WeatherDisplay:10.37 W/m2 FEW
08:06 -6.2 °F /  -21.2 °C -7.0 °F /  -21.7 °C 1017.8in /  34462.7hPa Calm     94% 0.0in /  0mm WeatherDisplay:10.37 W/m2 FEW
08:11 -6.1 °F /  -21.2 °C -6.9 °F /  -21.6 °C 1017.8in /  34462.7hPa Calm     94% 0.0in /  0mm WeatherDisplay:10.37 W/m2 FEW
08:16 -5.9 °F /  -21.1 °C -6.7 °F /  -21.5 °C 1017.8in /  34462.7hPa SSE 1.1mph /  1.8km/h 5.6mph /  9km/h 94% 0.0in /  0mm WeatherDisplay:10.37 W/m2 FEW
08:21 -5.6 °F /  -20.9 °C -6.4 °F /  -21.3 °C 1017.8in /  34462.7hPa SSE 0.2mph /  0.3km/h   94% 0.0in /  0mm WeatherDisplay:10.37 W/m2 FEW
08:26 -5.3 °F /  -20.7 °C -6.2 °F /  -21.2 °C 1017.8in /  34462.7hPa Calm     94% 0.0in /  0mm WeatherDisplay:10.37 W/m2 FEW
08:31 -5.2 °F /  -20.7 °C -6.0 °F /  -21.1 °C 1017.8in /  34462.7hPa Calm     94% 0.0in /  0mm WeatherDisplay:10.37 W/m2 FEW
08:36 -5.1 °F /  -20.6 °C -5.9 °F /  -21.1 °C 1018.2in /  34476.3hPa Calm     94% 0.0in /  0mm WeatherDisplay:10.37 W/m2 FEW
08:41 -4.8 °F /  -20.4 °C -5.7 °F /  -20.9 °C 1018.2in /  34476.3hPa Calm     94% 0.3in /  7.62mm WeatherDisplay:10.37 W/m2 RA
08:46 -4.7 °F /  -20.4 °C -5.5 °F /  -20.8 °C 1018.2in /  34476.3hPa Calm     94% 0.5in /  12.7mm WeatherDisplay:10.37 W/m2 RA
08:51 -4.6 °F /  -20.3 °C -5.4 °F /  -20.8 °C 1018.2in /  34476.3hPa Calm     94% 0.5in /  12.7mm WeatherDisplay:10.37 W/m2 RA
08:56 -4.4 °F /  -20.2 °C -5.3 °F /  -20.7 °C 1018.2in /  34476.3hPa Calm     94% 0.5in /  12.7mm WeatherDisplay:10.37 W/m2 FEW
09:01 -4.2 °F /  -20.1 °C -5.0 °F /  -20.6 °C 1018.2in /  34476.3hPa Calm     94% 0.5in /  12.7mm WeatherDisplay:10.37 W/m2 RA
09:06 -4.0 °F /  -20 °C -4.8 °F /  -20.4 °C 1018.2in /  34476.3hPa Calm     94% 0.5in /  12.7mm WeatherDisplay:10.37 W/m2 RA
09:11 -4.0 °F /  -20 °C -4.8 °F /  -20.4 °C 1018.2in /  34476.3hPa Calm     94% 0.5in /  12.7mm WeatherDisplay:10.37 W/m2 FEW
09:16 -3.9 °F /  -19.9 °C -4.8 °F /  -20.4 °C 1018.2in /  34476.3hPa Calm     94% 0.5in /  12.7mm WeatherDisplay:10.37 W/m2 FEW
09:21 -3.9 °F /  -19.9 °C -4.7 °F /  -20.4 °C 1018.2in /  34476.3hPa Calm     94% 0.5in /  12.7mm WeatherDisplay:10.37 W/m2 FEW
09:26 -3.8 °F /  -19.9 °C -4.6 °F /  -20.3 °C 1018.2in /  34476.3hPa Calm     94% 0.5in /  12.7mm WeatherDisplay:10.37 W/m2 FEW
09:31 -3.7 °F /  -19.8 °C -4.6 °F /  -20.3 °C 1018.5in /  34486.4hPa Calm     94% 0.5in /  12.7mm WeatherDisplay:10.37 W/m2 FEW
09:36 -3.7 °F /  -19.8 °C -4.6 °F /  -20.3 °C 1018.5in /  34486.4hPa Calm     94% 0.5in /  12.7mm WeatherDisplay:10.37 W/m2 FEW
09:41 -3.7 °F /  -19.8 °C -4.5 °F /  -20.3 °C 1018.5in /  34486.4hPa Calm     94% 0.5in /  12.7mm WeatherDisplay:10.37 W/m2 FEW
09:46 -3.6 °F /  -19.8 °C -4.4 °F /  -20.2 °C 1018.2in /  34476.3hPa Calm     94% 0.3in /  7.62mm WeatherDisplay:10.37 W/m2 FEW
09:51 -3.6 °F /  -19.8 °C -4.4 °F /  -20.2 °C 1018.2in /  34476.3hPa Calm     94% 0.3in /  7.62mm WeatherDisplay:10.37 W/m2 FEW
09:56 -3.5 °F /  -19.7 °C -4.3 °F /  -20.2 °C 1018.2in /  34476.3hPa Calm     94% 0.3in /  7.62mm WeatherDisplay:10.37 W/m2 FEW
10:01 -3.4 °F /  -19.7 °C -4.3 °F /  -20.2 °C 1018.2in /  34476.3hPa Calm     94% 0.0in /  0mm WeatherDisplay:10.37 W/m2 FEW
10:06 -3.4 °F /  -19.7 °C -4.2 °F /  -20.1 °C 1018.2in /  34476.3hPa Calm     94% 0.0in /  0mm WeatherDisplay:10.37 W/m2 FEW
10:11 -3.3 °F /  -19.6 °C -4.1 °F /  -20.1 °C 1018.2in /  34476.3hPa Calm     94% 0.0in /  0mm WeatherDisplay:10.37 W/m2 FEW
10:16 -3.2 °F /  -19.6 °C -4.1 °F /  -20.1 °C 1018.2in /  34476.3hPa Calm     94% 0.0in /  0mm WeatherDisplay:10.37 W/m2 FEW
10:21 -3.1 °F /  -19.5 °C -3.9 °F /  -19.9 °C 1018.5in /  34486.4hPa Calm     94% 0.0in /  0mm WeatherDisplay:10.37 W/m2 FEW
10:26 -2.9 °F /  -19.4 °C -3.8 °F /  -19.9 °C 1018.5in /  34486.4hPa South 0.2mph /  0.3km/h   94% 0.0in /  0mm WeatherDisplay:10.37 W/m2 FEW
10:31 -2.7 °F /  -19.3 °C -3.6 °F /  -19.8 °C 1018.5in /  34486.4hPa Calm     94% 0.0in /  0mm WeatherDisplay:10.37 W/m2 FEW
10:36 -2.5 °F /  -19.2 °C -3.3 °F /  -19.6 °C 1018.5in /  34486.4hPa SSE 1.0mph /  1.6km/h 1.9mph /  3.1km/h 94% 0.0in /  0mm WeatherDisplay:10.37 W/m2 FEW
10:41 -2.3 °F /  -19.1 °C -3.1 °F /  -19.5 °C 1018.5in /  34486.4hPa Calm     94% 0.0in /  0mm WeatherDisplay:10.37 W/m2 FEW
10:46 -2.1 °F /  -18.9 °C -2.9 °F /  -19.4 °C 1018.5in /  34486.4hPa Calm     94% 0.0in /  0mm WeatherDisplay:10.37 W/m2 FEW
10:51 -2.0 °F /  -18.9 °C -2.8 °F /  -19.3 °C 1018.5in /  34486.4hPa Calm     94% 0.0in /  0mm WeatherDisplay:10.37 W/m2 FEW
10:57 -1.8 °F /  -18.8 °C -2.7 °F /  -19.3 °C 1018.5in /  34486.4hPa Calm     94% 0.0in /  0mm WeatherDisplay:10.37 W/m2 FEW
11:02 -1.8 °F /  -18.8 °C -2.6 °F /  -19.2 °C 1018.5in /  34486.4hPa Calm   1.9mph /  3.1km/h 94% 0.0in /  0mm WeatherDisplay:10.37 W/m2 FEW
11:07 -1.7 °F /  -18.7 °C -2.6 °F /  -19.2 °C 1018.5in /  34486.4hPa Calm     94% 0.0in /  0mm WeatherDisplay:10.37 W/m2 FEW
11:12 -1.7 °F /  -18.7 °C -2.6 °F /  -19.2 °C 1018.8in /  34496.6hPa Calm     94% 0.0in /  0mm WeatherDisplay:10.37 W/m2 FEW
11:17 -1.8 °F /  -18.8 °C -2.6 °F /  -19.2 °C 1018.8in /  34496.6hPa Calm     94% 0.0in /  0mm WeatherDisplay:10.37 W/m2 FEW
11:22 -1.8 °F /  -18.8 °C -2.7 °F /  -19.3 °C 1018.8in /  34496.6hPa Calm     94% 0.0in /  0mm WeatherDisplay:10.37 W/m2 FEW
11:27 -1.9 °F /  -18.8 °C -2.7 °F /  -19.3 °C 1018.8in /  34496.6hPa Calm     94% 0.0in /  0mm WeatherDisplay:10.37 W/m2 FEW
11:32 -1.8 °F /  -18.8 °C -2.7 °F /  -19.3 °C 1018.8in /  34496.6hPa Calm     94% 0.0in /  0mm WeatherDisplay:10.37 W/m2 FEW
11:37 -1.8 °F /  -18.8 °C -2.8 °F /  -19.3 °C 1018.8in /  34496.6hPa Calm     93% 0.0in /  0mm WeatherDisplay:10.37 W/m2 FEW
11:42 -1.7 °F /  -18.7 °C -2.7 °F /  -19.3 °C 1018.8in /  34496.6hPa Calm     93% 0.0in /  0mm WeatherDisplay:10.37 W/m2 FEW
11:47 -1.7 °F /  -18.7 °C -2.5 °F /  -19.2 °C 1018.8in /  34496.6hPa Calm     94% 0.0in /  0mm WeatherDisplay:10.37 W/m2 FEW
11:52 -1.5 °F /  -18.6 °C -2.3 °F /  -19.1 °C 1018.8in /  34496.6hPa Calm     94% 0.0in /  0mm WeatherDisplay:10.37 W/m2 FEW
11:57 -1.4 °F /  -18.6 °C -2.3 °F /  -19.1 °C 1018.8in /  34496.6hPa Calm   3.7mph /  6km/h 94% 0.0in /  0mm WeatherDisplay:10.37 W/m2 FEW
12:02 -1.3 °F /  -18.5 °C -2.3 °F /  -19.1 °C 1018.8in /  34496.6hPa Calm     93% 0.0in /  0mm WeatherDisplay:10.37 W/m2 FEW
12:07 -1.3 °F /  -18.5 °C -2.1 °F /  -18.9 °C 1018.8in /  34496.6hPa Calm     94% 0.0in /  0mm WeatherDisplay:10.37 W/m2 FEW
12:12 -1.2 °F /  -18.4 °C -2.2 °F /  -19 °C 1018.8in /  34496.6hPa Calm     93% 0.0in /  0mm WeatherDisplay:10.37 W/m2 FEW
12:17 -1.2 °F /  -18.4 °C -2.2 °F /  -19 °C 1018.8in /  34496.6hPa Calm     93% 0.0in /  0mm WeatherDisplay:10.37 W/m2 FEW
12:22 -1.2 °F /  -18.4 °C -2.2 °F /  -19 °C 1018.8in /  34496.6hPa Calm     93% 0.0in /  0mm WeatherDisplay:10.37 W/m2 FEW
12:27 -1.2 °F /  -18.4 °C -2.2 °F /  -19 °C 1018.8in /  34496.6hPa SSE 0.3mph /  0.5km/h 1.6mph /  2.6km/h 93% 0.0in /  0mm WeatherDisplay:10.37 W/m2 FEW
12:32 -1.1 °F /  -18.4 °C -2.1 °F /  -18.9 °C 1018.8in /  34496.6hPa SE 2.6mph /  4.2km/h 5.6mph /  9km/h 93% 0.0in /  0mm WeatherDisplay:10.37 W/m2 FEW
12:37 -1.1 °F /  -18.4 °C -2.1 °F /  -18.9 °C 1018.8in /  34496.6hPa Calm     93% 0.0in /  0mm WeatherDisplay:10.37 W/m2 FEW
12:42 -1.1 °F /  -18.4 °C -2.1 °F /  -18.9 °C 1018.8in /  34496.6hPa Calm     93% 0.0in /  0mm WeatherDisplay:10.37 W/m2 FEW
12:47 -1.0 °F /  -18.3 °C -2.0 °F /  -18.9 °C 1018.8in /  34496.6hPa ESE 1.0mph /  1.6km/h 3.7mph /  6km/h 93% 0.0in /  0mm WeatherDisplay:10.37 W/m2 FEW
12:52 -0.9 °F /  -18.3 °C -1.9 °F /  -18.8 °C 1019.2in /  34510.1hPa Calm     93% 0.0in /  0mm WeatherDisplay:10.37 W/m2 FEW
12:57 -1.0 °F /  -18.3 °C -2.0 °F /  -18.9 °C 1019.2in /  34510.1hPa Calm     93% 0.0in /  0mm WeatherDisplay:10.37 W/m2 FEW
13:02 -1.0 °F /  -18.3 °C -2.0 °F /  -18.9 °C 1019.2in /  34510.1hPa Calm     93% 0.0in /  0mm WeatherDisplay:10.37 W/m2 FEW
13:07 -1.0 °F /  -18.3 °C -2.0 °F /  -18.9 °C 1019.2in /  34510.1hPa Calm     93% 0.0in /  0mm WeatherDisplay:10.37 W/m2 FEW
13:12 -1.0 °F /  -18.3 °C -2.0 °F /  -18.9 °C 1019.2in /  34510.1hPa Calm   3.7mph /  6km/h 93% 0.0in /  0mm WeatherDisplay:10.37 W/m2 FEW
13:17 -1.1 °F /  -18.4 °C -2.1 °F /  -18.9 °C 1019.2in /  34510.1hPa Calm     93% 0.0in /  0mm WeatherDisplay:10.37 W/m2 FEW
13:22 -1.1 °F /  -18.4 °C -2.1 °F /  -18.9 °C 1019.2in /  34510.1hPa SSW 0.3mph /  0.5km/h 1.6mph /  2.6km/h 93% 0.0in /  0mm WeatherDisplay:10.37 W/m2 FEW
13:27 -1.1 °F /  -18.4 °C -2.1 °F /  -18.9 °C 1019.2in /  34510.1hPa Calm     93% 0.0in /  0mm WeatherDisplay:10.37 W/m2 FEW
13:32 -1.1 °F /  -18.4 °C -2.1 °F /  -18.9 °C 1019.2in /  34510.1hPa Calm     93% 0.0in /  0mm WeatherDisplay:10.37 W/m2 FEW
13:37 -1.1 °F /  -18.4 °C -2.1 °F /  -18.9 °C 1019.2in /  34510.1hPa Calm     93% 0.0in /  0mm WeatherDisplay:10.37 W/m2 FEW
13:42 -1.2 °F /  -18.4 °C -2.2 °F /  -19 °C 1019.2in /  34510.1hPa Calm   1.9mph /  3.1km/h 93% 0.0in /  0mm WeatherDisplay:10.37 W/m2 FEW
13:47 -1.2 °F /  -18.4 °C -2.2 °F /  -19 °C 1019.2in /  34510.1hPa SSW 1.0mph /  1.6km/h 3.2mph /  5.1km/h 93% 0.0in /  0mm WeatherDisplay:10.37 W/m2 FEW
13:52 -1.2 °F /  -18.4 °C -2.2 °F /  -19 °C 1019.2in /  34510.1hPa Calm   3.7mph /  6km/h 93% 0.0in /  0mm WeatherDisplay:10.37 W/m2 FEW
13:57 -1.2 °F /  -18.4 °C -2.2 °F /  -19 °C 1019.2in /  34510.1hPa South 1.1mph /  1.8km/h 3.7mph /  6km/h 93% 0.0in /  0mm WeatherDisplay:10.37 W/m2 FEW
14:02 -1.3 °F /  -18.5 °C -2.3 °F /  -19.1 °C 1019.2in /  34510.1hPa NW 1.1mph /  1.8km/h 5.6mph /  9km/h 93% 0.0in /  0mm WeatherDisplay:10.37 W/m2 FEW
14:07 -1.3 °F /  -18.5 °C -2.3 °F /  -19.1 °C 1019.2in /  34510.1hPa South 2.1mph /  3.4km/h 4.8mph /  7.7km/h 93% 0.0in /  0mm WeatherDisplay:10.37 W/m2 FEW
14:12 -1.3 °F /  -18.5 °C -2.3 °F /  -19.1 °C 1019.2in /  34510.1hPa Calm   5.6mph /  9km/h 93% 0.0in /  0mm WeatherDisplay:10.37 W/m2 FEW
14:17 -1.4 °F /  -18.6 °C -2.4 °F /  -19.1 °C 1019.2in /  34510.1hPa SSW 1.0mph /  1.6km/h 1.6mph /  2.6km/h 93% 0.0in /  0mm WeatherDisplay:10.37 W/m2 FEW
14:22 -1.4 °F /  -18.6 °C -2.4 °F /  -19.1 °C 1019.2in /  34510.1hPa Calm     93% 0.0in /  0mm WeatherDisplay:10.37 W/m2 FEW
14:27 -1.4 °F /  -18.6 °C -2.4 °F /  -19.1 °C 1019.2in /  34510.1hPa Calm     93% 0.0in /  0mm WeatherDisplay:10.37 W/m2 FEW
14:32 -1.4 °F /  -18.6 °C -2.6 °F /  -19.2 °C 1019.2in /  34510.1hPa Calm     92% 0.0in /  0mm WeatherDisplay:10.37 W/m2 FEW
14:37 -1.4 °F /  -18.6 °C -2.6 °F /  -19.2 °C 1019.2in /  34510.1hPa Calm     92% 0.0in /  0mm WeatherDisplay:10.37 W/m2 FEW
14:42 -1.4 °F /  -18.6 °C -2.6 °F /  -19.2 °C 1019.2in /  34510.1hPa Calm     92% 0.0in /  0mm WeatherDisplay:10.37 W/m2 FEW
14:47 -1.4 °F /  -18.6 °C -2.4 °F /  -19.1 °C 1019.2in /  34510.1hPa Calm     93% 0.0in /  0mm WeatherDisplay:10.37 W/m2 FEW
14:52 -1.4 °F /  -18.6 °C -2.4 °F /  -19.1 °C 1019.2in /  34510.1hPa Calm     93% 0.0in /  0mm WeatherDisplay:10.37 W/m2 FEW
14:57 -1.3 °F /  -18.5 °C -2.3 °F /  -19.1 °C 1019.2in /  34510.1hPa Calm     93% 0.0in /  0mm WeatherDisplay:10.37 W/m2 FEW
15:02 -1.3 °F /  -18.5 °C -2.3 °F /  -19.1 °C 1019.2in /  34510.1hPa SE 0.5mph /  0.8km/h 5.6mph /  9km/h 93% 0.0in /  0mm WeatherDisplay:10.37 W/m2 FEW
15:07 -1.3 °F /  -18.5 °C -2.4 °F /  -19.1 °C 1019.2in /  34510.1hPa Calm     92% 0.0in /  0mm WeatherDisplay:10.37 W/m2 FEW
15:12 -1.3 °F /  -18.5 °C -2.4 °F /  -19.1 °C 1019.2in /  34510.1hPa Calm     92% 0.0in /  0mm WeatherDisplay:10.37 W/m2 FEW
15:17 -1.4 °F /  -18.6 °C -2.5 °F /  -19.2 °C 1019.2in /  34510.1hPa Calm     92% 0.0in /  0mm WeatherDisplay:10.37 W/m2 FEW
15:22 -1.4 °F /  -18.6 °C -2.6 °F /  -19.2 °C 1019.2in /  34510.1hPa Calm     92% 0.0in /  0mm WeatherDisplay:10.37 W/m2 FEW
15:27 -1.4 °F /  -18.6 °C -2.6 °F /  -19.2 °C 1019.2in /  34510.1hPa Calm   5.6mph /  9km/h 92% 0.0in /  0mm WeatherDisplay:10.37 W/m2 FEW
15:32 -1.5 °F /  -18.6 °C -2.6 °F /  -19.2 °C 1019.2in /  34510.1hPa Calm     92% 0.0in /  0mm WeatherDisplay:10.37 W/m2 FEW
15:37 -1.4 °F /  -18.6 °C -2.6 °F /  -19.2 °C 1019.5in /  34520.3hPa Calm     92% 0.0in /  0mm WeatherDisplay:10.37 W/m2 FEW
15:42 -1.6 °F /  -18.7 °C -2.7 °F /  -19.3 °C 1019.2in /  34510.1hPa Calm     92% 0.0in /  0mm WeatherDisplay:10.37 W/m2 FEW
15:47 -1.6 °F /  -18.7 °C -2.7 °F /  -19.3 °C 1019.2in /  34510.1hPa Calm     92% 0.0in /  0mm WeatherDisplay:10.37 W/m2 FEW
15:52 -1.6 °F /  -18.7 °C -2.7 °F /  -19.3 °C 1019.5in /  34520.3hPa South 0.6mph /  1km/h 3.7mph /  6km/h 92% 0.0in /  0mm WeatherDisplay:10.37 W/m2 FEW
15:57 -1.7 °F /  -18.7 °C -2.8 °F /  -19.3 °C 1019.5in /  34520.3hPa Calm     92% 0.0in /  0mm WeatherDisplay:10.37 W/m2 FEW
16:02 -1.7 °F /  -18.7 °C -2.8 °F /  -19.3 °C 1019.5in /  34520.3hPa Calm     92% 0.0in /  0mm WeatherDisplay:10.37 W/m2 FEW
16:07 -1.8 °F /  -18.8 °C -2.9 °F /  -19.4 °C 1019.5in /  34520.3hPa SSE 0.2mph /  0.3km/h 1.6mph /  2.6km/h 92% 0.0in /  0mm WeatherDisplay:10.37 W/m2 FEW
16:12 -1.8 °F /  -18.8 °C -2.9 °F /  -19.4 °C 1019.2in /  34510.1hPa Calm     92% 0.0in /  0mm WeatherDisplay:10.37 W/m2 FEW
16:17 -1.8 °F /  -18.8 °C -2.9 °F /  -19.4 °C 1019.5in /  34520.3hPa Calm     92% 0.0in /  0mm WeatherDisplay:10.37 W/m2 FEW
16:22 -1.9 °F /  -18.8 °C -2.9 °F /  -19.4 °C 1019.5in /  34520.3hPa Calm     93% 0.0in /  0mm WeatherDisplay:10.37 W/m2 FEW
16:27 -1.9 °F /  -18.8 °C -2.9 °F /  -19.4 °C 1019.5in /  34520.3hPa Calm     93% 0.0in /  0mm WeatherDisplay:10.37 W/m2 FEW
16:32 -1.9 °F /  -18.8 °C -2.9 °F /  -19.4 °C 1019.5in /  34520.3hPa Calm     93% 0.0in /  0mm WeatherDisplay:10.37 W/m2 FEW
16:37 -1.9 °F /  -18.8 °C -2.9 °F /  -19.4 °C 1019.5in /  34520.3hPa Calm     93% 0.0in /  0mm WeatherDisplay:10.37 W/m2 FEW
16:42 -2.0 °F /  -18.9 °C -3.0 °F /  -19.4 °C 1019.5in /  34520.3hPa Calm     93% 0.0in /  0mm WeatherDisplay:10.37 W/m2 FEW
16:47 -2.1 °F /  -18.9 °C -3.1 °F /  -19.5 °C 1019.5in /  34520.3hPa Calm     93% 0.0in /  0mm WeatherDisplay:10.37 W/m2 FEW
16:52 -2.1 °F /  -18.9 °C -3.1 °F /  -19.5 °C 1019.5in /  34520.3hPa Calm     93% 0.0in /  0mm WeatherDisplay:10.37 W/m2 FEW
16:57 -2.2 °F /  -19 °C -3.2 °F /  -19.6 °C 1019.9in /  34533.8hPa ESE 0.2mph /  0.3km/h 1.9mph /  3.1km/h 93% 0.0in /  0mm WeatherDisplay:10.37 W/m2 FEW
17:02 -2.2 °F /  -19 °C -3.2 °F /  -19.6 °C 1019.9in /  34533.8hPa Calm     93% 0.0in /  0mm WeatherDisplay:10.37 W/m2 FEW
17:07 -2.3 °F /  -19.1 °C -3.3 °F /  -19.6 °C 1019.9in /  34533.8hPa SE 0.8mph /  1.3km/h 5.6mph /  9km/h 93% 0.0in /  0mm WeatherDisplay:10.37 W/m2 FEW
17:12 -2.3 °F /  -19.1 °C -3.3 °F /  -19.6 °C 1019.9in /  34533.8hPa Calm     93% 0.0in /  0mm WeatherDisplay:10.37 W/m2 FEW
17:17 -2.4 °F /  -19.1 °C -3.5 °F /  -19.7 °C 1019.9in /  34533.8hPa Calm     92% 0.0in /  0mm WeatherDisplay:10.37 W/m2 FEW
17:22 -2.4 °F /  -19.1 °C -3.6 °F /  -19.8 °C 1019.9in /  34533.8hPa SSE 0.2mph /  0.3km/h 1.9mph /  3.1km/h 92% 0.0in /  0mm WeatherDisplay:10.37 W/m2 FEW
17:27 -2.5 °F /  -19.2 °C -3.6 °F /  -19.8 °C 1019.9in /  34533.8hPa Calm     92% 0.0in /  0mm WeatherDisplay:10.37 W/m2 FEW
17:32 -2.6 °F /  -19.2 °C -3.7 °F /  -19.8 °C 1019.9in /  34533.8hPa SSE 1.1mph /  1.8km/h   92% 0.0in /  0mm WeatherDisplay:10.37 W/m2 FEW
17:37 -2.7 °F /  -19.3 °C -3.8 °F /  -19.9 °C 1019.9in /  34533.8hPa Calm     92% 0.0in /  0mm WeatherDisplay:10.37 W/m2 FEW
17:42 -2.7 °F /  -19.3 °C -3.8 °F /  -19.9 °C 1019.9in /  34533.8hPa Calm     92% 0.0in /  0mm WeatherDisplay:10.37 W/m2 FEW
17:47 -2.8 °F /  -19.3 °C -3.9 °F /  -19.9 °C 1019.9in /  34533.8hPa Calm     92% 0.0in /  0mm WeatherDisplay:10.37 W/m2 FEW
17:52 -2.8 °F /  -19.3 °C -3.9 °F /  -19.9 °C 1019.9in /  34533.8hPa Calm     92% 0.0in /  0mm WeatherDisplay:10.37 W/m2 FEW
17:57 -2.8 °F /  -19.3 °C -3.9 °F /  -19.9 °C 1019.5in /  34520.3hPa Calm     92% 0.0in /  0mm WeatherDisplay:10.37 W/m2 FEW
18:02 -2.9 °F /  -19.4 °C -4.0 °F /  -20 °C 1019.9in /  34533.8hPa Calm     92% 0.0in /  0mm WeatherDisplay:10.37 W/m2 FEW
18:07 -2.9 °F /  -19.4 °C -4.1 °F /  -20.1 °C 1019.9in /  34533.8hPa Calm     92% 0.0in /  0mm WeatherDisplay:10.37 W/m2 FEW
18:12 -3.0 °F /  -19.4 °C -4.0 °F /  -20 °C 1019.9in /  34533.8hPa Calm     93% 0.0in /  0mm WeatherDisplay:10.37 W/m2 FEW
18:17 -3.1 °F /  -19.5 °C -4.2 °F /  -20.1 °C 1019.9in /  34533.8hPa Calm     92% 0.0in /  0mm WeatherDisplay:10.37 W/m2 FEW
18:22 -3.1 °F /  -19.5 °C -4.2 °F /  -20.1 °C 1019.9in /  34533.8hPa Calm     92% 0.0in /  0mm WeatherDisplay:10.37 W/m2 FEW
18:27 -3.1 °F /  -19.5 °C -4.2 °F /  -20.1 °C 1019.9in /  34533.8hPa Calm     92% 0.0in /  0mm WeatherDisplay:10.37 W/m2 FEW
18:32 -3.1 °F /  -19.5 °C -4.1 °F /  -20.1 °C 1019.9in /  34533.8hPa Calm     93% 0.0in /  0mm WeatherDisplay:10.37 W/m2 FEW
18:37 -3.1 °F /  -19.5 °C -4.1 °F /  -20.1 °C 1019.9in /  34533.8hPa Calm     93% 0.0in /  0mm WeatherDisplay:10.37 W/m2 FEW
18:42 -3.1 °F /  -19.5 °C -4.1 °F /  -20.1 °C 1019.9in /  34533.8hPa Calm     93% 0.0in /  0mm WeatherDisplay:10.37 W/m2 FEW
18:47 -3.1 °F /  -19.5 °C -4.1 °F /  -20.1 °C 1019.9in /  34533.8hPa Calm     93% 0.0in /  0mm WeatherDisplay:10.37 W/m2 FEW
18:52 -3.1 °F /  -19.5 °C -4.1 °F /  -20.1 °C 1019.9in /  34533.8hPa Calm     93% 0.0in /  0mm WeatherDisplay:10.37 W/m2 FEW
18:57 -3.1 °F /  -19.5 °C -4.1 °F /  -20.1 °C 1019.9in /  34533.8hPa Calm     93% 0.0in /  0mm WeatherDisplay:10.37 W/m2 FEW
19:02 -3.2 °F /  -19.6 °C -4.1 °F /  -20.1 °C 1019.9in /  34533.8hPa Calm     93% 0.0in /  0mm WeatherDisplay:10.37 W/m2 FEW
19:07 -3.2 °F /  -19.6 °C -4.1 °F /  -20.1 °C 1019.9in /  34533.8hPa Calm     93% 0.0in /  0mm WeatherDisplay:10.37 W/m2 FEW
19:12 -3.2 °F /  -19.6 °C -4.2 °F /  -20.1 °C 1019.9in /  34533.8hPa Calm     93% 0.0in /  0mm WeatherDisplay:10.37 W/m2 FEW
19:17 -3.2 °F /  -19.6 °C -4.2 °F /  -20.1 °C 1019.9in /  34533.8hPa Calm     93% 0.0in /  0mm WeatherDisplay:10.37 W/m2 FEW
19:22 -3.3 °F /  -19.6 °C -4.2 °F /  -20.1 °C 1019.9in /  34533.8hPa Calm     93% 0.0in /  0mm WeatherDisplay:10.37 W/m2 FEW
19:27 -3.3 °F /  -19.6 °C -4.4 °F /  -20.2 °C 1019.9in /  34533.8hPa Calm   3.7mph /  6km/h 92% 0.0in /  0mm WeatherDisplay:10.37 W/m2 FEW
19:32 -3.3 °F /  -19.6 °C -4.4 °F /  -20.2 °C 1019.9in /  34533.8hPa SSE 1.3mph /  2.1km/h 5.6mph /  9km/h 92% 0.0in /  0mm WeatherDisplay:10.37 W/m2 FEW
19:37 -3.4 °F /  -19.7 °C -4.5 °F /  -20.3 °C 1019.9in /  34533.8hPa SSE 1.0mph /  1.6km/h 5.6mph /  9km/h 92% 0.0in /  0mm WeatherDisplay:10.37 W/m2 FEW
19:42 -3.4 °F /  -19.7 °C -4.6 °F /  -20.3 °C 1019.9in /  34533.8hPa SSE 0.2mph /  0.3km/h 3.7mph /  6km/h 92% 0.0in /  0mm WeatherDisplay:10.37 W/m2 FEW
19:47 -3.4 °F /  -19.7 °C -4.6 °F /  -20.3 °C 1019.9in /  34533.8hPa Calm     92% 0.0in /  0mm WeatherDisplay:10.37 W/m2 FEW
19:52 -3.5 °F /  -19.7 °C -4.6 °F /  -20.3 °C 1019.9in /  34533.8hPa ESE 0.3mph /  0.5km/h 3.7mph /  6km/h 92% 0.0in /  0mm WeatherDisplay:10.37 W/m2 FEW
19:57 -3.6 °F /  -19.8 °C -4.7 °F /  -20.4 °C 1019.9in /  34533.8hPa Calm     92% 0.0in /  0mm WeatherDisplay:10.37 W/m2 FEW
20:02 -3.7 °F /  -19.8 °C -4.8 °F /  -20.4 °C 1019.9in /  34533.8hPa Calm     92% 0.0in /  0mm WeatherDisplay:10.37 W/m2 FEW
20:07 -3.7 °F /  -19.8 °C -4.8 °F /  -20.4 °C 1019.9in /  34533.8hPa Calm     92% 0.0in /  0mm WeatherDisplay:10.37 W/m2 FEW
20:12 -3.8 °F /  -19.9 °C -4.9 °F /  -20.5 °C 1019.9in /  34533.8hPa Calm     92% 0.0in /  0mm WeatherDisplay:10.37 W/m2 FEW
20:17 -3.8 °F /  -19.9 °C -5.1 °F /  -20.6 °C 1019.9in /  34533.8hPa Calm     91% 0.0in /  0mm WeatherDisplay:10.37 W/m2 FEW
20:22 -3.9 °F /  -19.9 °C -5.2 °F /  -20.7 °C 1019.9in /  34533.8hPa Calm     91% 0.0in /  0mm WeatherDisplay:10.37 W/m2 FEW
20:27 -4.1 °F /  -20.1 °C -5.4 °F /  -20.8 °C 1019.9in /  34533.8hPa Calm     91% 0.0in /  0mm WeatherDisplay:10.37 W/m2 FEW
20:32 -4.3 °F /  -20.2 °C -5.5 °F /  -20.8 °C 1019.9in /  34533.8hPa Calm     91% 0.0in /  0mm WeatherDisplay:10.37 W/m2 FEW
20:37 -4.4 °F /  -20.2 °C -5.7 °F /  -20.9 °C 1020.2in /  34544hPa Calm     91% 0.0in /  0mm WeatherDisplay:10.37 W/m2 FEW
20:42 -4.7 °F /  -20.4 °C -5.9 °F /  -21.1 °C 1020.2in /  34544hPa Calm     91% 0.0in /  0mm WeatherDisplay:10.37 W/m2 FEW
20:47 -4.8 °F /  -20.4 °C -6.0 °F /  -21.1 °C 1020.2in /  34544hPa Calm     91% 0.0in /  0mm WeatherDisplay:10.37 W/m2 FEW
20:52 -4.9 °F /  -20.5 °C -6.2 °F /  -21.2 °C 1020.2in /  34544hPa Calm     91% 0.0in /  0mm WeatherDisplay:10.37 W/m2 FEW
20:57 -5.1 °F /  -20.6 °C -6.3 °F /  -21.3 °C 1020.2in /  34544hPa Calm     91% 0.0in /  0mm WeatherDisplay:10.37 W/m2 FEW
21:02 -5.3 °F /  -20.7 °C -6.5 °F /  -21.4 °C 1020.2in /  34544hPa Calm     91% 0.0in /  0mm WeatherDisplay:10.37 W/m2 FEW
21:07 -5.4 °F /  -20.8 °C -6.6 °F /  -21.4 °C 1020.5in /  34554.1hPa Calm     91% 0.0in /  0mm WeatherDisplay:10.37 W/m2 FEW
21:12 -5.4 °F /  -20.8 °C -6.5 °F /  -21.4 °C 1020.5in /  34554.1hPa Calm     92% 0.0in /  0mm WeatherDisplay:10.37 W/m2 FEW
21:17 -5.4 °F /  -20.8 °C -6.6 °F /  -21.4 °C 1020.5in /  34554.1hPa Calm     92% 0.0in /  0mm WeatherDisplay:10.37 W/m2 FEW
21:22 -5.5 °F /  -20.8 °C -6.6 °F /  -21.4 °C 1020.2in /  34544hPa Calm     92% 0.0in /  0mm WeatherDisplay:10.37 W/m2 FEW
21:27 -5.5 °F /  -20.8 °C -6.6 °F /  -21.4 °C 1020.5in /  34554.1hPa Calm     92% 0.0in /  0mm WeatherDisplay:10.37 W/m2 FEW
21:32 -5.5 °F /  -20.8 °C -6.4 °F /  -21.3 °C 1020.5in /  34554.1hPa Calm     93% 0.0in /  0mm WeatherDisplay:10.37 W/m2 FEW
21:37 -5.4 °F /  -20.8 °C -6.3 °F /  -21.3 °C 1020.5in /  34554.1hPa Calm     93% 0.0in /  0mm WeatherDisplay:10.37 W/m2 FEW
21:42 -5.3 °F /  -20.7 °C -6.2 °F /  -21.2 °C 1020.5in /  34554.1hPa Calm     93% 0.0in /  0mm WeatherDisplay:10.37 W/m2 FEW
21:47 -5.2 °F /  -20.7 °C -6.2 °F /  -21.2 °C 1020.5in /  34554.1hPa South 0.5mph /  0.8km/h 5.6mph /  9km/h 93% 0.0in /  0mm WeatherDisplay:10.37 W/m2 FEW
21:52 -5.1 °F /  -20.6 °C -6.1 °F /  -21.2 °C 1020.5in /  34554.1hPa SSE 0.6mph /  1km/h 5.6mph /  9km/h 93% 0.0in /  0mm WeatherDisplay:10.37 W/m2 FEW
21:57 -5.1 °F /  -20.6 °C -6.0 °F /  -21.1 °C 1020.5in /  34554.1hPa Calm     93% 0.0in /  0mm WeatherDisplay:10.37 W/m2 FEW
22:02 -5.0 °F /  -20.6 °C -5.9 °F /  -21.1 °C 1020.5in /  34554.1hPa SSE 2.3mph /  3.7km/h 5.6mph /  9km/h 93% 0.0in /  0mm WeatherDisplay:10.37 W/m2 FEW
22:07 -5.0 °F /  -20.6 °C -5.9 °F /  -21.1 °C 1020.5in /  34554.1hPa Calm     93% 0.0in /  0mm WeatherDisplay:10.37 W/m2 FEW
22:12 -5.0 °F /  -20.6 °C -5.9 °F /  -21.1 °C 1020.5in /  34554.1hPa Calm     93% 0.0in /  0mm WeatherDisplay:10.37 W/m2 FEW
22:17 -4.9 °F /  -20.5 °C -5.9 °F /  -21.1 °C 1020.9in /  34567.7hPa Calm     93% 0.0in /  0mm WeatherDisplay:10.37 W/m2 FEW
22:22 -4.9 °F /  -20.5 °C -5.9 °F /  -21.1 °C 1020.9in /  34567.7hPa Calm     93% 0.0in /  0mm WeatherDisplay:10.37 W/m2 FEW
22:27 -4.9 °F /  -20.5 °C -5.9 °F /  -21.1 °C 1020.9in /  34567.7hPa Calm     93% 0.0in /  0mm WeatherDisplay:10.37 W/m2 FEW
22:32 -4.9 °F /  -20.5 °C -5.9 °F /  -21.1 °C 1020.9in /  34567.7hPa Calm     93% 0.0in /  0mm WeatherDisplay:10.37 W/m2 FEW
22:37 -5.0 °F /  -20.6 °C -5.9 °F /  -21.1 °C 1020.9in /  34567.7hPa Calm     93% 0.0in /  0mm WeatherDisplay:10.37 W/m2 FEW
22:43 -5.0 °F /  -20.6 °C -5.9 °F /  -21.1 °C 1020.9in /  34567.7hPa Calm     93% 0.0in /  0mm WeatherDisplay:10.37 W/m2 FEW
22:48 -5.1 °F /  -20.6 °C -6.0 °F /  -21.1 °C 1020.9in /  34567.7hPa Calm     93% 0.0in /  0mm WeatherDisplay:10.37 W/m2 FEW
22:53 -5.1 °F /  -20.6 °C -6.2 °F /  -21.2 °C 1020.9in /  34567.7hPa Calm     92% 0.0in /  0mm WeatherDisplay:10.37 W/m2 FEW
22:58 -5.2 °F /  -20.7 °C -6.3 °F /  -21.3 °C 1020.9in /  34567.7hPa Calm     92% 0.0in /  0mm WeatherDisplay:10.37 W/m2 FEW
23:03 -5.3 °F /  -20.7 °C -6.4 °F /  -21.3 °C 1020.9in /  34567.7hPa Calm     92% 0.0in /  0mm WeatherDisplay:10.37 W/m2 FEW
23:08 -5.5 °F /  -20.8 °C -6.6 °F /  -21.4 °C 1020.9in /  34567.7hPa Calm     92% 0.0in /  0mm WeatherDisplay:10.37 W/m2 FEW
23:13 -5.6 °F /  -20.9 °C -6.8 °F /  -21.6 °C 1020.5in /  34554.1hPa Calm     91% 0.0in /  0mm WeatherDisplay:10.37 W/m2 FEW
23:18 -5.8 °F /  -21 °C -7.1 °F /  -21.7 °C 1020.5in /  34554.1hPa Calm     91% 0.0in /  0mm WeatherDisplay:10.37 W/m2 FEW
23:24 -6.1 °F /  -21.2 °C -7.3 °F /  -21.8 °C 1020.5in /  34554.1hPa Calm     91% 0.0in /  0mm WeatherDisplay:10.37 W/m2 FEW
23:29 -6.3 °F /  -21.3 °C -7.6 °F /  -22 °C 1020.5in /  34554.1hPa Calm     91% 0.0in /  0mm WeatherDisplay:10.37 W/m2 FEW
23:34 -6.7 °F /  -21.5 °C -7.9 °F /  -22.2 °C 1020.9in /  34567.7hPa Calm     91% 0.0in /  0mm WeatherDisplay:10.37 W/m2 FEW
23:39 -6.9 °F /  -21.6 °C -8.1 °F /  -22.3 °C 1020.9in /  34567.7hPa Calm     91% 0.0in /  0mm WeatherDisplay:10.37 W/m2 FEW
23:44 -7.1 °F /  -21.7 °C -8.3 °F /  -22.4 °C 1020.9in /  34567.7hPa Calm     91% 0.0in /  0mm WeatherDisplay:10.37 W/m2 FEW
23:49 -7.3 °F /  -21.8 °C -8.7 °F /  -22.6 °C 1020.9in /  34567.7hPa Calm     90% 0.0in /  0mm WeatherDisplay:10.37 W/m2 FEW
23:54 -7.6 °F /  -22 °C -8.8 °F /  -22.7 °C 1020.9in /  34567.7hPa Calm     91% 0.0in /  0mm WeatherDisplay:10.37 W/m2 FEW
23:59 -7.8 °F /  -22.1 °C -9.0 °F /  -22.8 °C 1020.9in /  34567.7hPa Calm     91% 0.0in /  0mm WeatherDisplay:10.37 W/m2 FEW
Tuulensuunkaari, Veikkola, Suomi
Compliments of Weather Underground - 2.75 mb